createdAt,value
2017-04-28T00:00:16.778Z,59.55
2017-04-28T00:00:57.401Z,59.45
2017-04-28T00:01:38.016Z,59.36
2017-04-28T00:02:18.588Z,59.36
2017-04-28T00:02:59.202Z,59.36
2017-04-28T00:03:39.782Z,59.36
2017-04-28T00:04:20.379Z,59.36
2017-04-28T00:05:00.963Z,59.36
2017-04-28T00:05:41.526Z,59.27
2017-04-28T00:06:22.137Z,59.36
2017-04-28T00:07:02.720Z,59.36
2017-04-28T00:07:49.826Z,59.45
2017-04-28T00:08:30.441Z,59.36
2017-04-28T00:09:11.045Z,59.36
2017-04-28T00:09:51.662Z,59.07
2017-04-28T00:10:32.257Z,59.55
2017-04-28T00:11:12.849Z,59.45
2017-04-28T00:11:53.515Z,60.12
2017-04-28T00:12:34.065Z,59.74
2017-04-28T00:13:14.647Z,59.83
2017-04-28T00:13:55.274Z,60.12
2017-04-28T00:14:35.864Z,60.47
2017-04-28T00:15:16.465Z,59.9
2017-04-28T00:15:57.052Z,59.93
2017-04-28T00:16:37.627Z,60.5
2017-04-28T00:17:18.221Z,60.41
2017-04-28T00:17:58.790Z,60.12
2017-04-28T00:18:39.373Z,60.31
2017-04-28T00:19:19.972Z,60.18
2017-04-28T00:20:00.531Z,60.38
2017-04-28T00:20:41.136Z,60.21
2017-04-28T00:21:21.747Z,60.41
2017-04-28T00:22:02.316Z,60.21
2017-04-28T00:22:42.943Z,60.5
2017-04-28T00:23:23.495Z,60.85
2017-04-28T00:24:04.092Z,60.66
2017-04-28T00:24:44.731Z,60.5
2017-04-28T00:25:25.319Z,60.88
2017-04-28T00:26:05.900Z,60.88
2017-04-28T00:26:46.475Z,60.88
2017-04-28T00:27:27.056Z,60.85
2017-04-28T00:28:07.641Z,60.6
2017-04-28T00:28:48.234Z,60.78
2017-04-28T00:29:28.865Z,60.78
2017-04-28T00:30:09.442Z,60.88
2017-04-28T00:30:50.021Z,60.88
2017-04-28T00:31:30.621Z,61.35
2017-04-28T00:32:11.205Z,61.26
2017-04-28T00:32:51.856Z,61.32
2017-04-28T00:33:37.675Z,61.55
2017-04-28T00:34:18.256Z,61.32
2017-04-28T00:34:58.838Z,61.35
2017-04-28T00:35:39.451Z,61.52
2017-04-28T00:36:20.054Z,61.55
2017-04-28T00:37:00.695Z,61.64
2017-04-28T00:37:41.292Z,61.61
2017-04-28T00:38:21.903Z,61.74
2017-04-28T00:39:02.496Z,61.61
2017-04-28T00:39:43.105Z,61.61
2017-04-28T00:40:23.721Z,61.71
2017-04-28T00:41:04.332Z,61.8
2017-04-28T00:41:44.919Z,62.12
2017-04-28T00:42:25.501Z,62.08
2017-04-28T00:43:06.074Z,62.18
2017-04-28T00:43:46.657Z,62.08
2017-04-28T00:44:27.243Z,62.08
2017-04-28T00:45:07.825Z,61.99
2017-04-28T00:45:48.405Z,61.8
2017-04-28T00:46:29.002Z,61.8
2017-04-28T00:47:09.651Z,61.71
2017-04-28T00:47:50.238Z,61.9
2017-04-28T00:48:30.811Z,61.9
2017-04-28T00:49:11.390Z,61.9
2017-04-28T00:49:51.951Z,61.8
2017-04-28T00:50:32.528Z,62.46
2017-04-28T00:51:13.113Z,62.37
2017-04-28T00:51:53.716Z,62.08
2017-04-28T00:52:34.299Z,62.08
2017-04-28T00:53:14.868Z,62.18
2017-04-28T00:53:55.441Z,62.27
2017-04-28T00:54:36.016Z,62.08
2017-04-28T00:55:16.620Z,62.65
2017-04-28T00:55:57.195Z,62.56
2017-04-28T00:56:37.768Z,62.37
2017-04-28T00:57:18.351Z,62.27
2017-04-28T00:57:58.921Z,62.65
2017-04-28T00:58:39.514Z,62.37
2017-04-28T00:59:20.089Z,62.37
2017-04-28T01:00:00.697Z,62.56
2017-04-28T01:00:41.258Z,62.08
2017-04-28T01:01:21.823Z,62.27
2017-04-28T01:02:02.429Z,62.37
2017-04-28T01:02:43.019Z,62.18
2017-04-28T01:03:23.613Z,62.18
2017-04-28T01:04:04.192Z,62.37
2017-04-28T01:04:44.773Z,62.18
2017-04-28T01:05:25.356Z,62.08
2017-04-28T01:06:05.947Z,62.65
2017-04-28T01:06:46.532Z,62.27
2017-04-28T01:07:27.119Z,62.27
2017-04-28T01:08:07.694Z,62.56
2017-04-28T01:08:48.329Z,62.46
2017-04-28T01:09:28.902Z,62.46
2017-04-28T01:10:09.491Z,62.37
2017-04-28T01:10:50.089Z,62.37
2017-04-28T01:11:30.701Z,62.37
2017-04-28T01:12:11.314Z,62.18
2017-04-28T01:12:51.936Z,62.27
2017-04-28T01:13:32.556Z,62.37
2017-04-28T01:14:13.126Z,62.37
2017-04-28T01:14:53.714Z,62.46
2017-04-28T01:15:34.339Z,62.27
2017-04-28T01:16:14.940Z,62.94
2017-04-28T01:16:55.536Z,62.27
2017-04-28T01:17:36.132Z,62.37
2017-04-28T01:18:16.745Z,62.46
2017-04-28T01:18:57.387Z,62.46
2017-04-28T01:19:37.992Z,62.46
2017-04-28T01:20:18.608Z,62.56
2017-04-28T01:20:59.218Z,62.27
2017-04-28T01:21:39.808Z,62.27
2017-04-28T01:22:20.414Z,62.18
2017-04-28T01:23:01.021Z,62.46
2017-04-28T01:23:41.611Z,62.37
2017-04-28T01:24:22.230Z,62.37
2017-04-28T01:25:02.822Z,63.13
2017-04-28T01:25:43.412Z,63.04
2017-04-28T01:26:23.991Z,62.94
2017-04-28T01:27:04.566Z,62.85
2017-04-28T01:27:45.157Z,62.18
2017-04-28T01:28:25.749Z,62.85
2017-04-28T01:29:06.357Z,62.85
2017-04-28T01:29:46.946Z,62.75
2017-04-28T01:30:27.523Z,62.27
2017-04-28T01:31:08.150Z,62.27
2017-04-28T01:31:48.736Z,62.65
2017-04-28T01:32:29.324Z,62.18
2017-04-28T01:33:09.903Z,62.94
2017-04-28T01:33:50.486Z,62.94
2017-04-28T01:34:31.096Z,62.18
2017-04-28T01:35:11.684Z,62.37
2017-04-28T01:35:52.270Z,62.37
2017-04-28T01:36:32.845Z,62.56
2017-04-28T01:37:13.446Z,62.37
2017-04-28T01:37:54.031Z,62.27
2017-04-28T01:38:34.617Z,61.8
2017-04-28T01:39:15.183Z,61.8
2017-04-28T01:39:55.784Z,61.99
2017-04-28T01:40:36.371Z,62.08
2017-04-28T01:41:16.955Z,61.99
2017-04-28T01:41:57.518Z,61.71
2017-04-28T01:42:38.091Z,61.61
2017-04-28T01:43:18.682Z,61.8
2017-04-28T01:43:59.272Z,61.9
2017-04-28T01:44:39.836Z,61.99
2017-04-28T01:45:20.399Z,61.8
2017-04-28T01:46:01.009Z,61.9
2017-04-28T01:46:41.608Z,61.99
2017-04-28T01:47:22.194Z,61.99
2017-04-28T01:48:02.792Z,61.61
2017-04-28T01:48:43.406Z,61.9
2017-04-28T01:49:23.980Z,61.61
2017-04-28T01:50:04.576Z,61.8
2017-04-28T01:50:45.162Z,61.9
2017-04-28T01:51:25.762Z,61.9
2017-04-28T01:52:06.355Z,62.27
2017-04-28T01:52:46.951Z,61.9
2017-04-28T01:53:27.551Z,62.46
2017-04-28T01:54:08.173Z,62.27
2017-04-28T01:54:48.730Z,62.18
2017-04-28T01:55:29.314Z,62.18
2017-04-28T01:56:09.949Z,62.37
2017-04-28T01:56:50.495Z,62.18
2017-04-28T01:57:31.074Z,62.18
2017-04-28T01:58:11.635Z,61.99
2017-04-28T01:58:52.214Z,62.08
2017-04-28T01:59:32.775Z,62.56
2017-04-28T02:00:13.345Z,62.37
2017-04-28T02:00:54.032Z,62.65
2017-04-28T02:01:34.654Z,62.46
2017-04-28T02:02:15.243Z,62.37
2017-04-28T02:02:55.829Z,62.27
2017-04-28T02:03:36.426Z,62.37
2017-04-28T02:04:17.001Z,62.46
2017-04-28T02:04:57.613Z,62.46
2017-04-28T02:05:38.194Z,62.56
2017-04-28T02:06:18.761Z,62.46
2017-04-28T02:06:59.371Z,62.56
2017-04-28T02:07:39.993Z,62.46
2017-04-28T02:08:20.609Z,62.65
2017-04-28T02:09:01.211Z,62.27
2017-04-28T02:09:41.761Z,62.27
2017-04-28T02:10:22.330Z,62.18
2017-04-28T02:11:02.921Z,62.08
2017-04-28T02:11:43.517Z,61.99
2017-04-28T02:12:24.102Z,61.9
2017-04-28T02:13:04.721Z,61.9
2017-04-28T02:13:45.327Z,61.71
2017-04-28T02:14:25.897Z,61.99
2017-04-28T02:15:06.477Z,61.99
2017-04-28T02:15:47.060Z,61.9
2017-04-28T02:16:27.643Z,61.71
2017-04-28T02:17:08.232Z,61.32
2017-04-28T02:17:48.803Z,61.23
2017-04-28T02:18:29.384Z,61.52
2017-04-28T02:19:09.982Z,61.71
2017-04-28T02:19:50.571Z,61.13
2017-04-28T02:20:31.165Z,61.42
2017-04-28T02:21:11.776Z,61.42
2017-04-28T02:21:52.430Z,60.94
2017-04-28T02:22:33.013Z,61.04
2017-04-28T02:23:13.587Z,60.85
2017-04-28T02:23:54.165Z,60.85
2017-04-28T02:24:34.738Z,60.85
2017-04-28T02:25:15.321Z,60.94
2017-04-28T02:25:55.915Z,60.94
2017-04-28T02:26:36.479Z,60.94
2017-04-28T02:27:17.080Z,61.32
2017-04-28T02:27:57.657Z,61.52
2017-04-28T02:28:38.232Z,61.42
2017-04-28T02:29:18.824Z,61.52
2017-04-28T02:29:59.418Z,61.13
2017-04-28T02:30:40.008Z,60.94
2017-04-28T02:31:20.599Z,61.42
2017-04-28T02:32:01.176Z,61.23
2017-04-28T02:32:41.803Z,61.23
2017-04-28T02:33:22.377Z,60.75
2017-04-28T02:34:02.979Z,61.04
2017-04-28T02:34:43.580Z,61.52
2017-04-28T02:35:24.175Z,61.71
2017-04-28T02:36:04.749Z,61.32
2017-04-28T02:36:45.312Z,61.42
2017-04-28T02:37:25.896Z,61.8
2017-04-28T02:38:06.474Z,61.9
2017-04-28T02:38:47.059Z,61.99
2017-04-28T02:39:27.667Z,61.61
2017-04-28T02:40:08.253Z,61.8
2017-04-28T02:40:48.854Z,61.8
2017-04-28T02:41:29.455Z,62.56
2017-04-28T02:42:10.030Z,61.99
2017-04-28T02:42:50.601Z,62.18
2017-04-28T02:43:31.189Z,62.08
2017-04-28T02:44:11.770Z,62.08
2017-04-28T02:44:52.366Z,62.37
2017-04-28T02:45:32.955Z,62.18
2017-04-28T02:46:13.520Z,61.99
2017-04-28T02:46:54.094Z,62.08
2017-04-28T02:47:34.693Z,62.08
2017-04-28T02:48:15.302Z,61.9
2017-04-28T02:48:55.876Z,61.9
2017-04-28T02:49:36.463Z,61.71
2017-04-28T02:50:17.036Z,61.68
2017-04-28T02:50:57.634Z,61.9
2017-04-28T02:51:38.210Z,61.9
2017-04-28T02:52:18.787Z,61.58
2017-04-28T02:52:59.410Z,61.9
2017-04-28T02:53:40.022Z,61.87
2017-04-28T02:54:20.583Z,62.05
2017-04-28T02:55:01.337Z,61.9
2017-04-28T02:55:42.090Z,61.87
2017-04-28T02:56:22.729Z,61.9
2017-04-28T02:57:03.349Z,62.24
2017-04-28T02:57:44.174Z,62.05
2017-04-28T02:58:24.832Z,62.24
2017-04-28T02:59:05.505Z,62.18
2017-04-28T02:59:46.117Z,62.53
2017-04-28T03:00:26.709Z,62.62
2017-04-28T03:01:07.301Z,62.62
2017-04-28T03:01:47.970Z,62.53
2017-04-28T03:02:28.581Z,62.43
2017-04-28T03:03:09.618Z,62.24
2017-04-28T03:03:50.384Z,62.72
2017-04-28T03:04:31.224Z,63.01
2017-04-28T03:05:11.839Z,62.62
2017-04-28T03:05:52.437Z,62.53
2017-04-28T03:06:33.023Z,62.91
2017-04-28T03:07:13.600Z,62.62
2017-04-28T03:07:54.183Z,62.62
2017-04-28T03:08:34.773Z,62.81
2017-04-28T03:09:15.341Z,62.62
2017-04-28T03:09:55.933Z,62.91
2017-04-28T03:10:36.527Z,62.72
2017-04-28T03:11:17.113Z,62.72
2017-04-28T03:11:57.693Z,62.72
2017-04-28T03:12:38.295Z,62.91
2017-04-28T03:13:18.868Z,63.01
2017-04-28T03:13:59.449Z,63.1
2017-04-28T03:14:40.056Z,63.48
2017-04-28T03:15:20.623Z,63.29
2017-04-28T03:16:01.206Z,63.67
2017-04-28T03:16:41.802Z,63.48
2017-04-28T03:17:22.380Z,63.48
2017-04-28T03:18:02.977Z,63.29
2017-04-28T03:18:43.556Z,63.95
2017-04-28T03:19:24.130Z,63.57
2017-04-28T03:20:04.699Z,64.14
2017-04-28T03:20:45.300Z,63.76
2017-04-28T03:21:25.882Z,63.86
2017-04-28T03:22:06.477Z,63.86
2017-04-28T03:22:47.090Z,63.95
2017-04-28T03:23:27.685Z,64.14
2017-04-28T03:24:08.283Z,64.53
2017-04-28T03:24:48.881Z,64.24
2017-04-28T03:25:29.450Z,64.24
2017-04-28T03:26:10.611Z,64.14
2017-04-28T03:26:51.490Z,64.34
2017-04-28T03:27:32.130Z,64.53
2017-04-28T03:28:12.778Z,64.43
2017-04-28T03:28:53.475Z,64.72
2017-04-28T03:29:34.056Z,64.43
2017-04-28T03:30:14.634Z,64.9
2017-04-28T03:30:55.222Z,65.09
2017-04-28T03:31:35.801Z,64.72
2017-04-28T03:32:16.384Z,64.72
2017-04-28T03:32:56.961Z,64.62
2017-04-28T03:33:37.563Z,64.72
2017-04-28T03:34:18.146Z,65.09
2017-04-28T03:34:58.755Z,65.09
2017-04-28T03:35:39.343Z,65.16
2017-04-28T03:36:19.909Z,65.38
2017-04-28T03:37:00.490Z,65.38
2017-04-28T03:37:41.060Z,65.38
2017-04-28T03:38:21.657Z,65.19
2017-04-28T03:39:02.263Z,65.38
2017-04-28T03:39:42.832Z,65.57
2017-04-28T03:40:23.414Z,65.67
2017-04-28T03:41:03.982Z,65.44
2017-04-28T03:41:44.571Z,65.47
2017-04-28T03:42:25.139Z,65.47
2017-04-28T03:43:05.710Z,65.63
2017-04-28T03:43:46.352Z,65.47
2017-04-28T03:44:26.950Z,65.47
2017-04-28T03:45:07.521Z,65.38
2017-04-28T03:45:48.150Z,65.76
2017-04-28T03:46:28.750Z,65.28
2017-04-28T03:47:09.369Z,65.76
2017-04-28T03:47:49.978Z,65.76
2017-04-28T03:48:30.576Z,65.67
2017-04-28T03:49:11.192Z,65.76
2017-04-28T03:49:51.773Z,65.95
2017-04-28T03:50:32.344Z,65.86
2017-04-28T03:51:12.943Z,65.82
2017-04-28T03:51:53.520Z,65.76
2017-04-28T03:52:34.116Z,65.76
2017-04-28T03:53:14.754Z,65.54
2017-04-28T03:53:55.327Z,65.86
2017-04-28T03:54:35.999Z,65.76
2017-04-28T03:55:16.595Z,65.73
2017-04-28T03:55:57.177Z,65.76
2017-04-28T03:56:37.780Z,65.92
2017-04-28T03:57:18.358Z,65.92
2017-04-28T03:57:58.941Z,65.95
2017-04-28T03:58:39.556Z,65.86
2017-04-28T03:59:20.220Z,66.05
2017-04-28T04:01:13.637Z,65.73
2017-04-28T04:01:54.260Z,66.01
2017-04-28T04:02:34.848Z,65.73
2017-04-28T04:03:15.455Z,66.01
2017-04-28T04:03:56.087Z,65.63
2017-04-28T04:04:39.366Z,65.54
2017-04-28T04:05:19.941Z,65.44
2017-04-28T04:06:00.525Z,65.63
2017-04-28T04:06:41.136Z,66.01
2017-04-28T04:07:21.710Z,65.44
2017-04-28T04:08:02.288Z,65.86
2017-04-28T04:08:42.876Z,65.67
2017-04-28T04:09:23.457Z,65.44
2017-04-28T04:10:04.043Z,65.86
2017-04-28T04:10:44.669Z,65.95
2017-04-28T04:12:57.764Z,66.05
2017-04-28T04:14:51.705Z,65.82
2017-04-28T04:15:32.272Z,65.73
2017-04-28T04:16:12.851Z,65.86
2017-04-28T04:16:53.409Z,65.73
2017-04-28T04:17:34.019Z,65.25
2017-04-28T04:18:14.591Z,65.54
2017-04-28T04:18:55.253Z,65.63
2017-04-28T04:19:35.834Z,65.63
2017-04-28T04:20:16.425Z,65.92
2017-04-28T04:20:57.010Z,66.01
2017-04-28T04:21:37.610Z,66.11
2017-04-28T04:22:18.186Z,66.39
2017-04-28T04:22:58.769Z,66.2
2017-04-28T04:23:39.442Z,66.2
2017-04-28T04:24:19.976Z,66.2
2017-04-28T04:25:00.573Z,66.01
2017-04-28T04:25:41.149Z,66.11
2017-04-28T04:26:21.744Z,66.2
2017-04-28T04:27:02.361Z,66.39
2017-04-28T04:27:42.921Z,66.39
2017-04-28T04:28:23.499Z,66.2
2017-04-28T04:29:04.063Z,66.39
2017-04-28T04:29:44.642Z,66.01
2017-04-28T04:30:25.208Z,66.01
2017-04-28T04:31:05.819Z,66.3
2017-04-28T04:31:46.886Z,66.01
2017-04-28T04:32:27.466Z,66.39
2017-04-28T04:33:08.055Z,66.11
2017-04-28T04:33:48.636Z,66.01
2017-04-28T04:34:29.253Z,66.39
2017-04-28T04:35:09.820Z,66.58
2017-04-28T04:35:50.422Z,66.77
2017-04-28T04:36:31.024Z,66.39
2017-04-28T04:37:11.618Z,66.77
2017-04-28T04:37:52.341Z,66.96
2017-04-28T04:38:32.920Z,66.96
2017-04-28T04:39:13.571Z,66.96
2017-04-28T04:39:54.152Z,67.15
2017-04-28T04:40:34.728Z,67.15
2017-04-28T04:41:15.391Z,67.06
2017-04-28T04:41:56.016Z,67.53
2017-04-28T04:42:36.670Z,67.53
2017-04-28T04:43:17.262Z,67.53
2017-04-28T04:43:57.840Z,67.63
2017-04-28T04:44:38.466Z,68.01
2017-04-28T04:45:19.054Z,67.44
2017-04-28T04:45:59.676Z,67.34
2017-04-28T04:46:40.251Z,67.44
2017-04-28T04:47:20.847Z,67.44
2017-04-28T04:48:01.482Z,67.44
2017-04-28T04:48:42.098Z,67.53
2017-04-28T04:49:22.735Z,67.53
2017-04-28T04:50:03.306Z,66.96
2017-04-28T04:50:43.889Z,67.25
2017-04-28T04:51:24.486Z,67.34
2017-04-28T04:52:05.102Z,67.15
2017-04-28T04:52:45.670Z,66.96
2017-04-28T04:53:26.230Z,67.06
2017-04-28T04:54:06.828Z,67.28
2017-04-28T04:54:47.435Z,67.19
2017-04-28T04:55:28.088Z,67
2017-04-28T04:56:08.609Z,67.25
2017-04-28T04:56:49.265Z,67.19
2017-04-28T04:57:29.840Z,67.19
2017-04-28T04:58:10.420Z,67.19
2017-04-28T05:00:28.626Z,66.9
2017-04-28T05:01:09.233Z,66.8
2017-04-28T05:01:49.896Z,67.09
2017-04-28T05:02:30.497Z,67
2017-04-28T05:03:11.059Z,67.09
2017-04-28T05:03:51.654Z,67.19
2017-04-28T05:04:32.228Z,67
2017-04-28T05:05:12.844Z,66.71
2017-04-28T05:05:53.533Z,66.14
2017-04-28T05:06:34.151Z,66.42
2017-04-28T05:07:14.699Z,66.14
2017-04-28T05:07:55.280Z,66.24
2017-04-28T05:08:35.850Z,66.24
2017-04-28T05:09:16.423Z,66.24
2017-04-28T05:09:57.018Z,66.24
2017-04-28T05:10:37.613Z,66.24
2017-04-28T05:11:18.214Z,66.24
2017-04-28T05:11:58.795Z,65.86
2017-04-28T05:12:39.385Z,65.67
2017-04-28T05:13:20.000Z,65.76
2017-04-28T05:14:00.574Z,65.47
2017-04-28T05:14:41.161Z,65.38
2017-04-28T05:15:21.757Z,65.09
2017-04-28T05:16:02.375Z,64.34
2017-04-28T05:16:42.952Z,63.95
2017-04-28T05:17:23.553Z,64.05
2017-04-28T05:18:04.178Z,64.05
2017-04-28T05:18:44.761Z,64.34
2017-04-28T05:19:25.365Z,63.95
2017-04-28T05:20:05.947Z,63.76
2017-04-28T05:20:46.523Z,63.48
2017-04-28T05:21:27.128Z,63.48
2017-04-28T05:22:07.739Z,63.48
2017-04-28T05:22:48.318Z,62.65
2017-04-28T05:23:28.900Z,62.27
2017-04-28T05:24:09.514Z,62.37
2017-04-28T05:24:50.096Z,61.8
2017-04-28T05:25:30.764Z,60.85
2017-04-28T05:26:11.347Z,59.71
2017-04-28T05:26:51.943Z,59.9
2017-04-28T05:27:32.533Z,59.33
2017-04-28T05:28:13.105Z,59.42
2017-04-28T05:28:53.722Z,58.47
2017-04-28T05:29:34.291Z,57.9
2017-04-28T05:30:14.917Z,57.81
2017-04-28T05:30:55.542Z,57.62
2017-04-28T05:31:36.116Z,56.95
2017-04-28T05:32:16.710Z,57.33
2017-04-28T05:32:57.307Z,56.95
2017-04-28T05:33:37.939Z,57.14
2017-04-28T05:34:18.500Z,57.33
2017-04-28T05:34:59.092Z,57.14
2017-04-28T05:35:39.696Z,57.24
2017-04-28T05:36:20.271Z,56.85
2017-04-28T05:37:00.857Z,56.67
2017-04-28T05:37:41.437Z,55.81
2017-04-28T05:38:22.042Z,56
2017-04-28T05:39:02.631Z,56.19
2017-04-28T05:41:15.521Z,55.36
2017-04-28T05:41:56.225Z,55.55
2017-04-28T05:42:36.866Z,55.36
2017-04-28T05:43:17.458Z,54.89
2017-04-28T05:43:58.018Z,54.67
2017-04-28T05:44:53.269Z,54.98
2017-04-28T05:46:40.760Z,56.03
2017-04-28T05:47:21.339Z,61.83
2017-04-28T05:48:01.974Z,63.92
2017-04-28T05:48:42.606Z,63.76
2017-04-28T05:49:23.184Z,64.34
2017-04-28T05:50:03.774Z,63.39
2017-04-28T05:50:44.358Z,61.51
2017-04-28T05:51:24.936Z,60.21
2017-04-28T05:52:05.559Z,58.4
2017-04-28T05:52:46.159Z,58.21
2017-04-28T05:53:26.789Z,57.54
2017-04-28T05:54:07.432Z,56.81
2017-04-28T05:54:48.029Z,54.93
2017-04-28T05:55:28.645Z,53.78
2017-04-28T05:56:09.258Z,52.55
2017-04-28T05:56:49.835Z,52.26
2017-04-28T05:57:30.419Z,52.38
2017-04-28T05:58:10.987Z,50.38
2017-04-28T05:58:51.578Z,49.33
2017-04-28T05:59:32.175Z,49.23
2017-04-28T06:00:12.785Z,48.47
2017-04-28T06:00:53.376Z,47.92
2017-04-28T06:01:33.955Z,48.11
2017-04-28T06:02:14.542Z,46.97
2017-04-28T06:02:55.128Z,46.2
2017-04-28T06:03:35.700Z,45.56
2017-04-28T06:04:16.297Z,45.08
2017-04-28T06:04:56.934Z,44.89
2017-04-28T06:05:37.529Z,44.31
2017-04-28T06:06:18.132Z,44.02
2017-04-28T06:06:58.718Z,43.74
2017-04-28T06:07:39.344Z,43.19
2017-04-28T06:08:19.956Z,43
2017-04-28T06:09:00.649Z,41.66
2017-04-28T06:09:41.237Z,40.32
2017-04-28T06:10:21.828Z,40.52
2017-04-28T06:11:02.414Z,40.61
2017-04-28T06:11:43.022Z,40.03
2017-04-28T06:12:23.632Z,39.58
2017-04-28T06:13:04.203Z,38.53
2017-04-28T06:13:44.797Z,38.53
2017-04-28T06:14:25.395Z,37.19
2017-04-28T06:15:05.985Z,37.85
2017-04-28T06:15:46.588Z,37.66
2017-04-28T06:16:27.201Z,37.28
2017-04-28T06:17:07.879Z,37.19
2017-04-28T06:17:48.495Z,37.19
2017-04-28T06:18:29.100Z,37.02
2017-04-28T06:19:09.710Z,36.92
2017-04-28T06:19:50.305Z,36.44
2017-04-28T06:20:30.964Z,35.86
2017-04-28T06:21:11.549Z,36.15
2017-04-28T06:21:52.207Z,35.29
2017-04-28T06:22:32.815Z,35.12
2017-04-28T06:23:13.408Z,34.55
2017-04-28T06:23:54.036Z,33.3
2017-04-28T06:24:34.646Z,32.25
2017-04-28T06:25:15.268Z,31.87
2017-04-28T06:25:55.849Z,31.38
2017-04-28T06:26:36.481Z,31.38
2017-04-28T06:27:17.094Z,31.38
2017-04-28T06:27:57.774Z,32.06
2017-04-28T06:28:38.388Z,32.04
2017-04-28T06:29:18.995Z,31.95
2017-04-28T06:29:59.623Z,32.04
2017-04-28T06:30:40.230Z,32.04
2017-04-28T06:31:20.840Z,32.04
2017-04-28T06:32:01.460Z,32.04
2017-04-28T06:32:42.076Z,32.14
2017-04-28T06:33:22.661Z,32.04
2017-04-28T06:34:03.264Z,31.37
2017-04-28T06:34:43.973Z,31.37
2017-04-28T06:35:24.725Z,31.18
2017-04-28T06:36:05.321Z,31.18
2017-04-28T06:36:45.938Z,31.66
2017-04-28T06:37:26.523Z,31.66
2017-04-28T06:38:07.103Z,31.66
2017-04-28T06:38:47.685Z,31.47
2017-04-28T06:39:28.291Z,31.47
2017-04-28T06:40:08.925Z,32.04
2017-04-28T06:40:49.540Z,32.23
2017-04-28T06:41:30.192Z,32.62
2017-04-28T06:42:10.784Z,32.52
2017-04-28T06:42:51.375Z,32.81
2017-04-28T06:43:31.943Z,32.52
2017-04-28T06:44:12.534Z,32.33
2017-04-28T06:44:53.151Z,32.14
2017-04-28T06:45:33.768Z,32.23
2017-04-28T06:46:14.365Z,32.42
2017-04-28T06:46:54.973Z,32.23
2017-04-28T06:47:35.570Z,32.42
2017-04-28T06:48:16.218Z,32.23
2017-04-28T06:48:56.810Z,32.33
2017-04-28T06:49:37.698Z,32.15
2017-04-28T06:50:18.288Z,32.34
2017-04-28T06:50:58.889Z,32.25
2017-04-28T06:51:39.476Z,32.25
2017-04-28T06:52:20.100Z,32.44
2017-04-28T06:53:00.748Z,32.06
2017-04-28T06:53:41.346Z,31.58
2017-04-28T06:54:21.959Z,31.48
2017-04-28T06:55:02.747Z,31.1
2017-04-28T06:55:43.346Z,31.29
2017-04-28T06:56:23.975Z,31.02
2017-04-28T06:57:04.635Z,30.64
2017-04-28T06:57:45.312Z,31.01
2017-04-28T06:58:25.925Z,31.12
2017-04-28T06:59:06.512Z,31.21
2017-04-28T06:59:47.246Z,31.01
2017-04-28T07:00:27.939Z,30.83
2017-04-28T07:01:09.292Z,30.16
2017-04-28T07:01:49.919Z,29.95
2017-04-28T07:02:30.513Z,30.43
2017-04-28T07:03:11.155Z,30.15
2017-04-28T07:03:51.807Z,30.62
2017-04-28T07:04:32.455Z,30.44
2017-04-28T07:05:13.074Z,30.54
2017-04-28T07:05:53.754Z,31.12
2017-04-28T07:06:34.444Z,31.02
2017-04-28T07:07:15.046Z,30.44
2017-04-28T07:07:55.638Z,30.93
2017-04-28T07:08:36.287Z,30.64
2017-04-28T07:09:16.882Z,30.26
2017-04-28T07:09:57.479Z,30.93
2017-04-28T07:10:38.118Z,30.73
2017-04-28T07:11:18.691Z,30.35
2017-04-28T07:11:59.390Z,30.64
2017-04-28T07:12:40.000Z,30.44
2017-04-28T07:13:20.620Z,30.73
2017-04-28T07:14:01.205Z,30.64
2017-04-28T07:14:41.822Z,30.26
2017-04-28T07:15:22.471Z,29.97
2017-04-28T07:16:03.174Z,29.68
2017-04-28T07:16:43.801Z,29.87
2017-04-28T07:17:24.382Z,30.16
2017-04-28T07:18:05.042Z,30.64
2017-04-28T07:18:45.726Z,30.73
2017-04-28T07:19:26.329Z,30.35
2017-04-28T07:20:06.982Z,29.49
2017-04-28T07:20:47.616Z,29.87
2017-04-28T07:21:28.241Z,30.44
2017-04-28T07:22:08.864Z,30.54
2017-04-28T07:22:49.459Z,30.44
2017-04-28T07:23:30.048Z,30.93
2017-04-28T07:24:10.701Z,31.12
2017-04-28T07:24:51.292Z,31.4
2017-04-28T07:25:31.877Z,31.4
2017-04-28T07:26:12.474Z,31.13
2017-04-28T07:26:53.461Z,30.65
2017-04-28T07:27:34.081Z,30.46
2017-04-28T07:28:14.738Z,30.36
2017-04-28T07:28:55.356Z,30.46
2017-04-28T07:29:35.937Z,30.08
2017-04-28T07:30:16.563Z,30.46
2017-04-28T07:30:57.138Z,30.27
2017-04-28T07:31:37.738Z,29.79
2017-04-28T07:32:18.335Z,29.98
2017-04-28T07:32:58.982Z,29.5
2017-04-28T07:33:39.549Z,29.23
2017-04-28T07:34:20.161Z,29.13
2017-04-28T07:35:00.777Z,30
2017-04-28T07:35:41.440Z,30
2017-04-28T07:36:22.024Z,29.8
2017-04-28T07:37:02.653Z,29.71
2017-04-28T07:37:43.248Z,30.29
2017-04-28T07:38:23.818Z,29.71
2017-04-28T07:39:04.446Z,29.8
2017-04-28T07:39:45.050Z,29.71
2017-04-28T07:40:25.678Z,28.85
2017-04-28T07:41:06.368Z,28.66
2017-04-28T07:41:46.962Z,28.85
2017-04-28T07:42:27.564Z,28.56
2017-04-28T07:43:08.238Z,28.85
2017-04-28T07:43:48.936Z,28.85
2017-04-28T07:44:29.587Z,28.56
2017-04-28T07:45:10.303Z,28.08
2017-04-28T07:45:50.913Z,27.41
2017-04-28T07:46:31.544Z,28.46
2017-04-28T07:47:12.220Z,28.85
2017-04-28T07:47:52.809Z,28.67
2017-04-28T07:48:33.441Z,28.57
2017-04-28T07:49:14.085Z,28.48
2017-04-28T07:49:54.756Z,27.89
2017-04-28T07:50:35.431Z,28.37
2017-04-28T07:51:16.038Z,28.46
2017-04-28T07:51:56.686Z,28.27
2017-04-28T07:52:37.284Z,28.37
2017-04-28T07:53:17.913Z,28.66
2017-04-28T07:53:58.554Z,28.94
2017-04-28T07:54:39.194Z,28.37
2017-04-28T07:55:20.013Z,28.08
2017-04-28T07:56:00.711Z,27.89
2017-04-28T07:56:41.475Z,28.17
2017-04-28T07:57:22.100Z,28.37
2017-04-28T07:58:02.688Z,27.5
2017-04-28T07:58:43.330Z,26.74
2017-04-28T07:59:23.913Z,26.93
2017-04-28T08:00:04.529Z,26.63
2017-04-28T08:00:45.185Z,27.2
2017-04-28T08:01:25.808Z,27.2
2017-04-28T08:02:06.403Z,28.06
2017-04-28T08:02:47.020Z,28.45
2017-04-28T08:03:27.665Z,28.55
2017-04-28T08:04:08.256Z,28.55
2017-04-28T08:04:48.866Z,28.45
2017-04-28T08:05:29.523Z,28.06
2017-04-28T08:06:10.118Z,27.78
2017-04-28T08:06:50.689Z,27.87
2017-04-28T08:07:31.316Z,27.68
2017-04-28T08:08:12.755Z,28.06
2017-04-28T08:08:53.396Z,28.35
2017-04-28T08:09:34.165Z,28.35
2017-04-28T08:10:14.781Z,28.83
2017-04-28T08:10:55.660Z,29.12
2017-04-28T08:11:36.277Z,29.22
2017-04-28T08:12:16.916Z,29.22
2017-04-28T08:12:57.662Z,27.78
2017-04-28T08:13:38.473Z,28.56
2017-04-28T08:14:19.115Z,29.31
2017-04-28T08:14:59.797Z,28.85
2017-04-28T08:15:40.519Z,28.75
2017-04-28T08:16:21.312Z,28.85
2017-04-28T08:17:01.917Z,27.7
2017-04-28T08:17:43.274Z,26.74
2017-04-28T08:18:24.004Z,26.83
2017-04-28T08:19:04.594Z,26.92
2017-04-28T08:19:45.313Z,26.83
2017-04-28T08:20:26.267Z,27.11
2017-04-28T08:21:07.597Z,26.34
2017-04-28T08:21:48.170Z,26.92
2017-04-28T08:22:29.032Z,27.2
2017-04-28T08:23:09.794Z,28.06
2017-04-28T08:23:50.644Z,28.45
2017-04-28T08:24:31.367Z,27.87
2017-04-28T08:25:11.986Z,27.87
2017-04-28T08:25:52.631Z,27.68
2017-04-28T08:26:33.520Z,27.87
2017-04-28T08:27:14.189Z,26.63
2017-04-28T08:27:54.850Z,26.63
2017-04-28T08:28:35.725Z,27.3
2017-04-28T08:29:16.558Z,27.3
2017-04-28T08:29:57.228Z,27.3
2017-04-28T08:30:37.886Z,27.01
2017-04-28T08:31:18.581Z,27.38
2017-04-28T08:31:59.641Z,28.05
2017-04-28T08:32:40.585Z,27.58
2017-04-28T08:33:21.208Z,27.19
2017-04-28T08:34:01.971Z,27
2017-04-28T08:34:43.769Z,27.09
2017-04-28T08:35:24.382Z,27.09
2017-04-28T08:36:04.987Z,27.28
2017-04-28T08:36:45.659Z,27.58
2017-04-28T08:37:26.339Z,27.48
2017-04-28T08:38:07.890Z,27.86
2017-04-28T08:38:48.588Z,27.95
2017-04-28T08:39:29.229Z,27.67
2017-04-28T08:40:09.866Z,27
2017-04-28T08:40:50.568Z,27.09
2017-04-28T08:41:31.205Z,27.37
2017-04-28T08:42:11.853Z,26.7
2017-04-28T08:42:52.581Z,26.41
2017-04-28T08:43:33.818Z,26.79
2017-04-28T08:44:14.713Z,27.27
2017-04-28T08:44:55.321Z,27.08
2017-04-28T08:45:35.955Z,27.45
2017-04-28T08:46:16.809Z,27.55
2017-04-28T08:46:57.485Z,27.64
2017-04-28T08:47:38.171Z,27.83
2017-04-28T08:48:18.878Z,28.02
2017-04-28T08:48:59.685Z,27.93
2017-04-28T08:49:40.361Z,28.02
2017-04-28T08:50:21.051Z,27.93
2017-04-28T08:51:01.828Z,28.12
2017-04-28T08:51:42.405Z,28.31
2017-04-28T08:52:23.406Z,28.41
2017-04-28T08:53:04.103Z,28.5
2017-04-28T08:53:44.832Z,28.39